sensor_id;sensor_type;location;lat;lon;timestamp;P1;durP1;ratioP1;P2;durP2;ratioP2
11962;SDS011;62678;52.130;5.584;2023-07-20T00:01:49;9.90;;;7.05;;
11962;SDS011;62678;52.130;5.584;2023-07-20T00:04:16;9.10;;;6.70;;
11962;SDS011;62678;52.130;5.584;2023-07-20T00:06:43;7.47;;;6.35;;
11962;SDS011;62678;52.130;5.584;2023-07-20T00:09:12;8.80;;;6.70;;
11962;SDS011;62678;52.130;5.584;2023-07-20T00:11:39;7.05;;;6.35;;
11962;SDS011;62678;52.130;5.584;2023-07-20T00:14:06;6.97;;;6.10;;
11962;SDS011;62678;52.130;5.584;2023-07-20T00:16:33;8.13;;;5.88;;
11962;SDS011;62678;52.130;5.584;2023-07-20T00:19:00;6.72;;;5.40;;
11962;SDS011;62678;52.130;5.584;2023-07-20T00:21:27;7.07;;;5.82;;
11962;SDS011;62678;52.130;5.584;2023-07-20T00:23:54;6.65;;;5.85;;
11962;SDS011;62678;52.130;5.584;2023-07-20T00:26:22;5.53;;;5.10;;
11962;SDS011;62678;52.130;5.584;2023-07-20T00:28:49;6.78;;;5.38;;
11962;SDS011;62678;52.130;5.584;2023-07-20T00:31:17;7.28;;;5.22;;
11962;SDS011;62678;52.130;5.584;2023-07-20T00:33:44;5.82;;;5.30;;
11962;SDS011;62678;52.130;5.584;2023-07-20T00:36:11;5.78;;;5.28;;
11962;SDS011;62678;52.130;5.584;2023-07-20T00:38:38;5.63;;;5.13;;
11962;SDS011;62678;52.130;5.584;2023-07-20T00:41:06;7.28;;;5.35;;
11962;SDS011;62678;52.130;5.584;2023-07-20T00:43:34;5.93;;;4.72;;
11962;SDS011;62678;52.130;5.584;2023-07-20T00:46:01;5.65;;;5.15;;
11962;SDS011;62678;52.130;5.584;2023-07-20T00:48:29;5.85;;;5.13;;
11962;SDS011;62678;52.130;5.584;2023-07-20T00:50:56;4.57;;;4.28;;
11962;SDS011;62678;52.130;5.584;2023-07-20T00:53:25;6.28;;;4.70;;
11962;SDS011;62678;52.130;5.584;2023-07-20T00:55:52;4.95;;;4.40;;
11962;SDS011;62678;52.130;5.584;2023-07-20T00:58:20;4.55;;;4.10;;
11962;SDS011;62678;52.130;5.584;2023-07-20T01:00:48;4.75;;;4.35;;
11962;SDS011;62678;52.130;5.584;2023-07-20T01:03:15;5.22;;;4.70;;
11962;SDS011;62678;52.130;5.584;2023-07-20T01:05:45;4.18;;;3.83;;
11962;SDS011;62678;52.130;5.584;2023-07-20T01:08:17;7.13;;;4.53;;
11962;SDS011;62678;52.130;5.584;2023-07-20T01:10:55;4.97;;;4.00;;
11962;SDS011;62678;52.130;5.584;2023-07-20T01:13:28;4.57;;;4.18;;
11962;SDS011;62678;52.130;5.584;2023-07-20T01:15:58;4.63;;;4.13;;
11962;SDS011;62678;52.130;5.584;2023-07-20T01:18:28;5.80;;;4.53;;
11962;SDS011;62678;52.130;5.584;2023-07-20T01:20:56;4.55;;;4.13;;
11962;SDS011;62678;52.130;5.584;2023-07-20T01:23:34;4.53;;;4.13;;
11962;SDS011;62678;52.130;5.584;2023-07-20T01:29:27;4.38;;;4.07;;
11962;SDS011;62678;52.130;5.584;2023-07-20T01:32:11;4.90;;;4.50;;
11962;SDS011;62678;52.130;5.584;2023-07-20T01:34:39;4.80;;;4.40;;
11962;SDS011;62678;52.130;5.584;2023-07-20T01:37:07;5.00;;;4.60;;
11962;SDS011;62678;52.130;5.584;2023-07-20T01:39:35;5.35;;;4.85;;
11962;SDS011;62678;52.130;5.584;2023-07-20T01:42:04;5.88;;;4.90;;
11962;SDS011;62678;52.130;5.584;2023-07-20T01:44:32;5.47;;;4.95;;
11962;SDS011;62678;52.130;5.584;2023-07-20T01:46:59;5.10;;;4.70;;
11962;SDS011;62678;52.130;5.584;2023-07-20T01:49:27;5.90;;;4.95;;
11962;SDS011;62678;52.130;5.584;2023-07-20T01:51:54;5.97;;;5.40;;
11962;SDS011;62678;52.130;5.584;2023-07-20T01:54:21;6.05;;;5.53;;
11962;SDS011;62678;52.130;5.584;2023-07-20T01:56:48;6.53;;;5.70;;
11962;SDS011;62678;52.130;5.584;2023-07-20T01:59:15;5.65;;;5.15;;
11962;SDS011;62678;52.130;5.584;2023-07-20T02:01:42;6.35;;;5.75;;
11962;SDS011;62678;52.130;5.584;2023-07-20T02:04:09;6.68;;;6.07;;
11962;SDS011;62678;52.130;5.584;2023-07-20T02:06:37;6.80;;;6.07;;
11962;SDS011;62678;52.130;5.584;2023-07-20T02:09:04;5.93;;;5.43;;
11962;SDS011;62678;52.130;5.584;2023-07-20T02:11:31;5.65;;;5.13;;
11962;SDS011;62678;52.130;5.584;2023-07-20T02:13:58;6.03;;;5.43;;
11962;SDS011;62678;52.130;5.584;2023-07-20T02:16:25;5.43;;;4.93;;
11962;SDS011;62678;52.130;5.584;2023-07-20T02:18:52;6.30;;;5.70;;
11962;SDS011;62678;52.130;5.584;2023-07-20T02:21:21;6.05;;;5.43;;
11962;SDS011;62678;52.130;5.584;2023-07-20T02:23:50;6.50;;;5.80;;
11962;SDS011;62678;52.130;5.584;2023-07-20T02:26:17;7.03;;;6.40;;
11962;SDS011;62678;52.130;5.584;2023-07-20T02:28:44;7.50;;;6.80;;
11962;SDS011;62678;52.130;5.584;2023-07-20T02:31:11;7.35;;;6.72;;
11962;SDS011;62678;52.130;5.584;2023-07-20T02:33:38;7.72;;;7.00;;
11962;SDS011;62678;52.130;5.584;2023-07-20T02:36:05;7.65;;;6.95;;
11962;SDS011;62678;52.130;5.584;2023-07-20T02:38:32;8.38;;;7.35;;
11962;SDS011;62678;52.130;5.584;2023-07-20T02:41:01;7.63;;;6.93;;
11962;SDS011;62678;52.130;5.584;2023-07-20T02:43:28;7.43;;;6.72;;
11962;SDS011;62678;52.130;5.584;2023-07-20T02:45:54;6.95;;;6.35;;
11962;SDS011;62678;52.130;5.584;2023-07-20T02:48:22;7.15;;;6.55;;
11962;SDS011;62678;52.130;5.584;2023-07-20T02:50:48;7.30;;;6.70;;
11962;SDS011;62678;52.130;5.584;2023-07-20T02:53:15;6.90;;;6.30;;
11962;SDS011;62678;52.130;5.584;2023-07-20T02:55:43;6.97;;;6.38;;
11962;SDS011;62678;52.130;5.584;2023-07-20T02:58:11;6.63;;;6.10;;
11962;SDS011;62678;52.130;5.584;2023-07-20T03:00:38;6.63;;;5.70;;
11962;SDS011;62678;52.130;5.584;2023-07-20T03:03:05;6.88;;;6.00;;
11962;SDS011;62678;52.130;5.584;2023-07-20T03:05:34;6.30;;;5.70;;
11962;SDS011;62678;52.130;5.584;2023-07-20T03:08:03;5.75;;;5.30;;
11962;SDS011;62678;52.130;5.584;2023-07-20T03:10:31;6.63;;;6.03;;
11962;SDS011;62678;52.130;5.584;2023-07-20T03:12:58;6.65;;;6.05;;
11962;SDS011;62678;52.130;5.584;2023-07-20T03:15:26;7.45;;;6.53;;
11962;SDS011;62678;52.130;5.584;2023-07-20T03:17:54;7.00;;;6.28;;
11962;SDS011;62678;52.130;5.584;2023-07-20T03:20:21;7.50;;;6.85;;
11962;SDS011;62678;52.130;5.584;2023-07-20T03:22:48;7.88;;;7.07;;
11962;SDS011;62678;52.130;5.584;2023-07-20T03:25:15;7.50;;;6.80;;
11962;SDS011;62678;52.130;5.584;2023-07-20T03:27:42;8.07;;;7.28;;
11962;SDS011;62678;52.130;5.584;2023-07-20T03:30:10;9.43;;;8.00;;
11962;SDS011;62678;52.130;5.584;2023-07-20T03:32:38;9.20;;;8.30;;
11962;SDS011;62678;52.130;5.584;2023-07-20T03:35:06;9.60;;;8.55;;
11962;SDS011;62678;52.130;5.584;2023-07-20T03:37:33;9.05;;;8.13;;
11962;SDS011;62678;52.130;5.584;2023-07-20T03:40:01;8.57;;;7.82;;
11962;SDS011;62678;52.130;5.584;2023-07-20T03:42:29;8.95;;;8.15;;
11962;SDS011;62678;52.130;5.584;2023-07-20T03:44:56;8.98;;;8.18;;
11962;SDS011;62678;52.130;5.584;2023-07-20T03:47:23;8.25;;;7.53;;
11962;SDS011;62678;52.130;5.584;2023-07-20T03:49:52;8.25;;;7.60;;
11962;SDS011;62678;52.130;5.584;2023-07-20T03:52:19;7.75;;;7.15;;
11962;SDS011;62678;52.130;5.584;2023-07-20T03:54:46;7.80;;;7.20;;
11962;SDS011;62678;52.130;5.584;2023-07-20T03:57:13;7.90;;;7.20;;
11962;SDS011;62678;52.130;5.584;2023-07-20T03:59:44;8.25;;;7.20;;
11962;SDS011;62678;52.130;5.584;2023-07-20T04:02:11;8.18;;;6.75;;
11962;SDS011;62678;52.130;5.584;2023-07-20T04:04:39;9.10;;;7.40;;
11962;SDS011;62678;52.130;5.584;2023-07-20T04:07:07;7.82;;;7.07;;
11962;SDS011;62678;52.130;5.584;2023-07-20T04:09:34;8.43;;;7.63;;
11962;SDS011;62678;52.130;5.584;2023-07-20T04:12:01;9.45;;;7.18;;
11962;SDS011;62678;52.130;5.584;2023-07-20T04:14:29;8.60;;;7.32;;
11962;SDS011;62678;52.130;5.584;2023-07-20T04:16:56;7.25;;;6.53;;
11962;SDS011;62678;52.130;5.584;2023-07-20T04:19:25;7.15;;;6.55;;
11962;SDS011;62678;52.130;5.584;2023-07-20T04:21:52;9.10;;;7.28;;
11962;SDS011;62678;52.130;5.584;2023-07-20T04:24:20;7.80;;;7.20;;
11962;SDS011;62678;52.130;5.584;2023-07-20T04:26:47;7.05;;;6.35;;
11962;SDS011;62678;52.130;5.584;2023-07-20T04:29:14;7.47;;;6.80;;
11962;SDS011;62678;52.130;5.584;2023-07-20T04:31:41;7.38;;;6.65;;
11962;SDS011;62678;52.130;5.584;2023-07-20T04:34:08;7.50;;;6.80;;
11962;SDS011;62678;52.130;5.584;2023-07-20T04:36:35;7.05;;;6.45;;
11962;SDS011;62678;52.130;5.584;2023-07-20T04:39:02;7.45;;;6.50;;
11962;SDS011;62678;52.130;5.584;2023-07-20T04:41:31;7.13;;;6.43;;
11962;SDS011;62678;52.130;5.584;2023-07-20T04:43:58;7.25;;;6.55;;
11962;SDS011;62678;52.130;5.584;2023-07-20T04:46:25;7.03;;;6.32;;
11962;SDS011;62678;52.130;5.584;2023-07-20T04:48:52;8.98;;;5.88;;
11962;SDS011;62678;52.130;5.584;2023-07-20T04:51:19;7.38;;;6.15;;
11962;SDS011;62678;52.130;5.584;2023-07-20T04:53:47;6.32;;;5.72;;
11962;SDS011;62678;52.130;5.584;2023-07-20T04:56:14;6.15;;;5.50;;
11962;SDS011;62678;52.130;5.584;2023-07-20T04:58:42;6.13;;;5.53;;
11962;SDS011;62678;52.130;5.584;2023-07-20T05:01:10;5.95;;;5.45;;
11962;SDS011;62678;52.130;5.584;2023-07-20T05:03:37;8.63;;;5.63;;
11962;SDS011;62678;52.130;5.584;2023-07-20T05:06:04;5.82;;;5.40;;
11962;SDS011;62678;52.130;5.584;2023-07-20T05:08:31;6.75;;;5.32;;
11962;SDS011;62678;52.130;5.584;2023-07-20T05:10:59;8.32;;;5.57;;
11962;SDS011;62678;52.130;5.584;2023-07-20T05:13:26;5.70;;;5.20;;
11962;SDS011;62678;52.130;5.584;2023-07-20T05:15:54;5.80;;;5.22;;
11962;SDS011;62678;52.130;5.584;2023-07-20T05:18:21;5.88;;;5.28;;
11962;SDS011;62678;52.130;5.584;2023-07-20T05:20:49;6.00;;;5.20;;
11962;SDS011;62678;52.130;5.584;2023-07-20T05:23:17;8.45;;;5.72;;
11962;SDS011;62678;52.130;5.584;2023-07-20T05:25:45;6.43;;;5.55;;
11962;SDS011;62678;52.130;5.584;2023-07-20T05:28:12;5.85;;;5.25;;
11962;SDS011;62678;52.130;5.584;2023-07-20T05:30:39;5.82;;;4.57;;
11962;SDS011;62678;52.130;5.584;2023-07-20T05:33:08;5.40;;;4.88;;
11962;SDS011;62678;52.130;5.584;2023-07-20T05:35:35;5.68;;;5.07;;
11962;SDS011;62678;52.130;5.584;2023-07-20T05:38:02;6.40;;;5.22;;
11962;SDS011;62678;52.130;5.584;2023-07-20T05:40:31;6.18;;;5.68;;
11962;SDS011;62678;52.130;5.584;2023-07-20T05:42:58;5.70;;;5.20;;
11962;SDS011;62678;52.130;5.584;2023-07-20T05:45:26;5.47;;;5.07;;
11962;SDS011;62678;52.130;5.584;2023-07-20T05:47:53;5.60;;;5.07;;
11962;SDS011;62678;52.130;5.584;2023-07-20T05:50:21;5.45;;;5.00;;
11962;SDS011;62678;52.130;5.584;2023-07-20T05:52:48;6.60;;;5.70;;
11962;SDS011;62678;52.130;5.584;2023-07-20T05:55:18;5.90;;;5.40;;
11962;SDS011;62678;52.130;5.584;2023-07-20T05:57:45;5.40;;;4.90;;
11962;SDS011;62678;52.130;5.584;2023-07-20T06:00:13;6.57;;;5.60;;
11962;SDS011;62678;52.130;5.584;2023-07-20T06:02:40;5.90;;;5.35;;
11962;SDS011;62678;52.130;5.584;2023-07-20T06:05:08;6.38;;;4.93;;
11962;SDS011;62678;52.130;5.584;2023-07-20T06:07:37;6.03;;;4.63;;
11962;SDS011;62678;52.130;5.584;2023-07-20T06:10:04;4.90;;;4.40;;
11962;SDS011;62678;52.130;5.584;2023-07-20T06:12:32;4.95;;;4.13;;
11962;SDS011;62678;52.130;5.584;2023-07-20T06:15:01;4.90;;;4.40;;
11962;SDS011;62678;52.130;5.584;2023-07-20T06:17:29;3.60;;;3.20;;
11962;SDS011;62678;52.130;5.584;2023-07-20T06:19:56;4.35;;;3.30;;
11962;SDS011;62678;52.130;5.584;2023-07-20T06:22:23;4.90;;;2.95;;
11962;SDS011;62678;52.130;5.584;2023-07-20T06:24:52;2.72;;;2.40;;
11962;SDS011;62678;52.130;5.584;2023-07-20T06:27:19;3.25;;;2.15;;
11962;SDS011;62678;52.130;5.584;2023-07-20T06:29:46;2.78;;;1.75;;
11962;SDS011;62678;52.130;5.584;2023-07-20T06:32:14;2.40;;;2.03;;
11962;SDS011;62678;52.130;5.584;2023-07-20T06:34:41;2.55;;;2.00;;
11962;SDS011;62678;52.130;5.584;2023-07-20T06:37:08;2.22;;;1.77;;
11962;SDS011;62678;52.130;5.584;2023-07-20T06:39:35;2.40;;;1.77;;
11962;SDS011;62678;52.130;5.584;2023-07-20T06:42:05;2.92;;;2.30;;
11962;SDS011;62678;52.130;5.584;2023-07-20T06:44:33;3.97;;;2.60;;
11962;SDS011;62678;52.130;5.584;2023-07-20T06:47:00;3.25;;;2.42;;
11962;SDS011;62678;52.130;5.584;2023-07-20T06:49:28;3.05;;;2.10;;
11962;SDS011;62678;52.130;5.584;2023-07-20T06:51:57;3.42;;;2.40;;
11962;SDS011;62678;52.130;5.584;2023-07-20T06:54:24;2.55;;;2.33;;
11962;SDS011;62678;52.130;5.584;2023-07-20T06:56:52;3.03;;;2.03;;
11962;SDS011;62678;52.130;5.584;2023-07-20T06:59:21;1.70;;;1.60;;
11962;SDS011;62678;52.130;5.584;2023-07-20T07:01:49;2.22;;;2.00;;
11962;SDS011;62678;52.130;5.584;2023-07-20T07:04:16;2.63;;;1.60;;
11962;SDS011;62678;52.130;5.584;2023-07-20T07:06:43;2.47;;;1.85;;
11962;SDS011;62678;52.130;5.584;2023-07-20T07:09:09;3.58;;;1.50;;
11962;SDS011;62678;52.130;5.584;2023-07-20T07:11:37;2.50;;;1.50;;
11962;SDS011;62678;52.130;5.584;2023-07-20T07:14:04;2.72;;;1.40;;
11962;SDS011;62678;52.130;5.584;2023-07-20T07:16:33;2.08;;;1.10;;
11962;SDS011;62678;52.130;5.584;2023-07-20T07:19:00;1.63;;;1.10;;
11962;SDS011;62678;52.130;5.584;2023-07-20T07:21:28;3.63;;;0.93;;
11962;SDS011;62678;52.130;5.584;2023-07-20T07:23:56;1.65;;;0.77;;
11962;SDS011;62678;52.130;5.584;2023-07-20T07:26:24;1.02;;;0.80;;
11962;SDS011;62678;52.130;5.584;2023-07-20T07:28:52;3.35;;;0.70;;
11962;SDS011;62678;52.130;5.584;2023-07-20T07:31:19;1.42;;;0.98;;
11962;SDS011;62678;52.130;5.584;2023-07-20T07:33:47;0.70;;;0.70;;
11962;SDS011;62678;52.130;5.584;2023-07-20T07:36:15;1.95;;;0.80;;
11962;SDS011;62678;52.130;5.584;2023-07-20T07:38:42;2.08;;;1.17;;
11962;SDS011;62678;52.130;5.584;2023-07-20T07:41:09;2.58;;;0.98;;
11962;SDS011;62678;52.130;5.584;2023-07-20T07:43:36;3.33;;;1.10;;
11962;SDS011;62678;52.130;5.584;2023-07-20T07:46:04;0.80;;;0.70;;
11962;SDS011;62678;52.130;5.584;2023-07-20T07:48:31;1.15;;;0.75;;
11962;SDS011;62678;52.130;5.584;2023-07-20T07:51:00;3.58;;;0.80;;
11962;SDS011;62678;52.130;5.584;2023-07-20T07:53:27;2.05;;;0.60;;
11962;SDS011;62678;52.130;5.584;2023-07-20T07:55:55;1.48;;;0.98;;
11962;SDS011;62678;52.130;5.584;2023-07-20T07:58:22;1.30;;;1.05;;
11962;SDS011;62678;52.130;5.584;2023-07-20T08:00:50;1.60;;;1.15;;
11962;SDS011;62678;52.130;5.584;2023-07-20T08:03:18;1.35;;;1.15;;
11962;SDS011;62678;52.130;5.584;2023-07-20T08:05:46;1.33;;;1.10;;
11962;SDS011;62678;52.130;5.584;2023-07-20T08:08:15;2.60;;;1.13;;
11962;SDS011;62678;52.130;5.584;2023-07-20T08:10:43;2.35;;;0.82;;
11962;SDS011;62678;52.130;5.584;2023-07-20T08:13:10;2.55;;;1.55;;
11962;SDS011;62678;52.130;5.584;2023-07-20T08:15:38;1.83;;;0.90;;
11962;SDS011;62678;52.130;5.584;2023-07-20T08:18:05;1.02;;;0.93;;
11962;SDS011;62678;52.130;5.584;2023-07-20T08:20:33;0.98;;;0.50;;
11962;SDS011;62678;52.130;5.584;2023-07-20T08:23:01;0.50;;;0.40;;
11962;SDS011;62678;52.130;5.584;2023-07-20T08:25:29;1.17;;;0.40;;
11962;SDS011;62678;52.130;5.584;2023-07-20T08:27:56;0.50;;;0.50;;
11962;SDS011;62678;52.130;5.584;2023-07-20T08:30:26;2.70;;;2.50;;
11962;SDS011;62678;52.130;5.584;2023-07-20T08:33:05;1.67;;;0.80;;
11962;SDS011;62678;52.130;5.584;2023-07-20T08:35:33;1.27;;;0.70;;
11962;SDS011;62678;52.130;5.584;2023-07-20T08:38:00;1.15;;;0.50;;
11962;SDS011;62678;52.130;5.584;2023-07-20T08:40:31;1.17;;;0.55;;
11962;SDS011;62678;52.130;5.584;2023-07-20T08:42:58;0.77;;;0.40;;
11962;SDS011;62678;52.130;5.584;2023-07-20T08:45:27;1.10;;;0.30;;
11962;SDS011;62678;52.130;5.584;2023-07-20T08:47:56;1.40;;;0.63;;
11962;SDS011;62678;52.130;5.584;2023-07-20T08:50:25;5.10;;;4.03;;
11962;SDS011;62678;52.130;5.584;2023-07-20T08:52:54;2.08;;;1.98;;
11962;SDS011;62678;52.130;5.584;2023-07-20T08:55:24;4.40;;;0.85;;
11962;SDS011;62678;52.130;5.584;2023-07-20T08:57:55;1.33;;;0.98;;
11962;SDS011;62678;52.130;5.584;2023-07-20T09:00:23;1.10;;;0.98;;
11962;SDS011;62678;52.130;5.584;2023-07-20T09:02:52;1.88;;;0.93;;
11962;SDS011;62678;52.130;5.584;2023-07-20T09:05:21;1.83;;;0.90;;
11962;SDS011;62678;52.130;5.584;2023-07-20T09:07:50;2.20;;;0.90;;
11962;SDS011;62678;52.130;5.584;2023-07-20T09:10:19;1.42;;;1.10;;
11962;SDS011;62678;52.130;5.584;2023-07-20T09:12:48;1.85;;;0.93;;
11962;SDS011;62678;52.130;5.584;2023-07-20T09:15:17;2.30;;;0.65;;
11962;SDS011;62678;52.130;5.584;2023-07-20T09:17:46;1.45;;;0.80;;
11962;SDS011;62678;52.130;5.584;2023-07-20T09:20:15;0.98;;;0.90;;
11962;SDS011;62678;52.130;5.584;2023-07-20T09:22:43;2.88;;;0.90;;
11962;SDS011;62678;52.130;5.584;2023-07-20T09:25:12;3.05;;;0.90;;
11962;SDS011;62678;52.130;5.584;2023-07-20T09:27:41;1.13;;;0.60;;
11962;SDS011;62678;52.130;5.584;2023-07-20T09:30:09;0.80;;;0.70;;
11962;SDS011;62678;52.130;5.584;2023-07-20T09:32:40;2.22;;;0.85;;
11962;SDS011;62678;52.130;5.584;2023-07-20T09:35:15;3.28;;;1.48;;
11962;SDS011;62678;52.130;5.584;2023-07-20T09:37:48;2.97;;;2.00;;
11962;SDS011;62678;52.130;5.584;2023-07-20T09:40:18;2.28;;;1.70;;
11962;SDS011;62678;52.130;5.584;2023-07-20T09:42:46;2.40;;;0.70;;
11962;SDS011;62678;52.130;5.584;2023-07-20T09:45:14;1.15;;;0.60;;
11962;SDS011;62678;52.130;5.584;2023-07-20T09:47:43;0.90;;;0.55;;
11962;SDS011;62678;52.130;5.584;2023-07-20T09:50:10;1.40;;;0.68;;
11962;SDS011;62678;52.130;5.584;2023-07-20T09:52:38;0.85;;;0.55;;
11962;SDS011;62678;52.130;5.584;2023-07-20T09:55:07;0.68;;;0.60;;
11962;SDS011;62678;52.130;5.584;2023-07-20T09:57:36;1.15;;;0.70;;
11962;SDS011;62678;52.130;5.584;2023-07-20T10:00:05;1.10;;;0.50;;
11962;SDS011;62678;52.130;5.584;2023-07-20T10:02:41;0.88;;;0.50;;
11962;SDS011;62678;52.130;5.584;2023-07-20T10:05:11;0.80;;;0.60;;
11962;SDS011;62678;52.130;5.584;2023-07-20T10:07:43;1.85;;;0.60;;
11962;SDS011;62678;52.130;5.584;2023-07-20T10:10:13;0.90;;;0.55;;
11962;SDS011;62678;52.130;5.584;2023-07-20T10:12:42;0.60;;;0.50;;
11962;SDS011;62678;52.130;5.584;2023-07-20T10:15:11;1.52;;;0.63;;
11962;SDS011;62678;52.130;5.584;2023-07-20T10:17:47;2.47;;;0.80;;
11962;SDS011;62678;52.130;5.584;2023-07-20T10:20:23;0.82;;;0.60;;
11962;SDS011;62678;52.130;5.584;2023-07-20T10:22:52;1.42;;;0.70;;
11962;SDS011;62678;52.130;5.584;2023-07-20T10:25:21;0.45;;;0.43;;
11962;SDS011;62678;52.130;5.584;2023-07-20T10:27:50;0.38;;;0.30;;
11962;SDS011;62678;52.130;5.584;2023-07-20T10:30:18;1.20;;;0.55;;
11962;SDS011;62678;52.130;5.584;2023-07-20T10:32:48;0.85;;;0.57;;
11962;SDS011;62678;52.130;5.584;2023-07-20T10:35:18;0.90;;;0.50;;
11962;SDS011;62678;52.130;5.584;2023-07-20T10:37:46;1.95;;;0.45;;
11962;SDS011;62678;52.130;5.584;2023-07-20T10:40:24;2.15;;;0.52;;
11962;SDS011;62678;52.130;5.584;2023-07-20T10:43:00;0.85;;;0.40;;
11962;SDS011;62678;52.130;5.584;2023-07-20T10:45:33;0.95;;;0.40;;
11962;SDS011;62678;52.130;5.584;2023-07-20T10:50:44;0.70;;;0.65;;
11962;SDS011;62678;52.130;5.584;2023-07-20T10:53:32;2.40;;;0.70;;
11962;SDS011;62678;52.130;5.584;2023-07-20T10:56:06;1.52;;;0.60;;
11962;SDS011;62678;52.130;5.584;2023-07-20T10:58:35;2.22;;;0.60;;
11962;SDS011;62678;52.130;5.584;2023-07-20T11:01:03;0.90;;;0.80;;
11962;SDS011;62678;52.130;5.584;2023-07-20T11:03:33;1.10;;;0.50;;
11962;SDS011;62678;52.130;5.584;2023-07-20T11:09:09;0.43;;;0.38;;
11962;SDS011;62678;52.130;5.584;2023-07-20T11:11:40;0.82;;;0.40;;
11962;SDS011;62678;52.130;5.584;2023-07-20T11:14:08;0.57;;;0.50;;
11962;SDS011;62678;52.130;5.584;2023-07-20T11:16:37;1.23;;;0.40;;
11962;SDS011;62678;52.130;5.584;2023-07-20T11:19:12;2.13;;;0.50;;
11962;SDS011;62678;52.130;5.584;2023-07-20T11:21:42;0.63;;;0.50;;
11962;SDS011;62678;52.130;5.584;2023-07-20T11:24:09;0.60;;;0.60;;
11962;SDS011;62678;52.130;5.584;2023-07-20T11:26:45;0.85;;;0.43;;
11962;SDS011;62678;52.130;5.584;2023-07-20T11:29:15;0.65;;;0.50;;
11962;SDS011;62678;52.130;5.584;2023-07-20T11:31:43;0.73;;;0.50;;
11962;SDS011;62678;52.130;5.584;2023-07-20T11:34:12;0.30;;;0.30;;
11962;SDS011;62678;52.130;5.584;2023-07-20T11:36:41;0.47;;;0.30;;
11962;SDS011;62678;52.130;5.584;2023-07-20T11:39:10;0.73;;;0.40;;
11962;SDS011;62678;52.130;5.584;2023-07-20T11:41:41;3.40;;;0.43;;
11962;SDS011;62678;52.130;5.584;2023-07-20T11:44:12;0.52;;;0.30;;
11962;SDS011;62678;52.130;5.584;2023-07-20T11:46:40;0.50;;;0.40;;
11962;SDS011;62678;52.130;5.584;2023-07-20T11:49:09;1.10;;;0.30;;
11962;SDS011;62678;52.130;5.584;2023-07-20T11:51:39;1.10;;;0.38;;
11962;SDS011;62678;52.130;5.584;2023-07-20T11:54:07;3.13;;;0.70;;
11962;SDS011;62678;52.130;5.584;2023-07-20T11:56:38;1.88;;;0.40;;
11962;SDS011;62678;52.130;5.584;2023-07-20T11:59:09;0.38;;;0.28;;
11962;SDS011;62678;52.130;5.584;2023-07-20T12:01:36;0.47;;;0.25;;
11962;SDS011;62678;52.130;5.584;2023-07-20T12:04:03;1.75;;;0.40;;
11962;SDS011;62678;52.130;5.584;2023-07-20T12:06:32;0.40;;;0.30;;
11962;SDS011;62678;52.130;5.584;2023-07-20T12:09:01;0.38;;;0.38;;
11962;SDS011;62678;52.130;5.584;2023-07-20T12:11:32;1.65;;;0.30;;
11962;SDS011;62678;52.130;5.584;2023-07-20T12:14:00;1.58;;;0.35;;
11962;SDS011;62678;52.130;5.584;2023-07-20T12:16:29;0.55;;;0.40;;
11962;SDS011;62678;52.130;5.584;2023-07-20T12:19:00;0.30;;;0.30;;
11962;SDS011;62678;52.130;5.584;2023-07-20T12:21:29;1.17;;;0.73;;
11962;SDS011;62678;52.130;5.584;2023-07-20T12:23:57;0.88;;;0.50;;
11962;SDS011;62678;52.130;5.584;2023-07-20T12:26:28;0.75;;;0.43;;
11962;SDS011;62678;52.130;5.584;2023-07-20T12:28:56;1.15;;;0.40;;
11962;SDS011;62678;52.130;5.584;2023-07-20T12:31:24;0.43;;;0.40;;
11962;SDS011;62678;52.130;5.584;2023-07-20T12:33:52;1.00;;;0.35;;
11962;SDS011;62678;52.130;5.584;2023-07-20T12:36:21;1.92;;;0.40;;
11962;SDS011;62678;52.130;5.584;2023-07-20T12:38:48;0.65;;;0.30;;
11962;SDS011;62678;52.130;5.584;2023-07-20T12:41:16;1.27;;;0.40;;
11962;SDS011;62678;52.130;5.584;2023-07-20T12:43:45;0.55;;;0.35;;
11962;SDS011;62678;52.130;5.584;2023-07-20T12:46:12;0.32;;;0.30;;
11962;SDS011;62678;52.130;5.584;2023-07-20T12:48:40;3.35;;;0.45;;
11962;SDS011;62678;52.130;5.584;2023-07-20T12:51:09;1.52;;;0.40;;
11962;SDS011;62678;52.130;5.584;2023-07-20T12:53:37;1.25;;;0.38;;
11962;SDS011;62678;52.130;5.584;2023-07-20T12:56:04;0.55;;;0.40;;
11962;SDS011;62678;52.130;5.584;2023-07-20T12:58:32;0.82;;;0.50;;
11962;SDS011;62678;52.130;5.584;2023-07-20T13:01:01;0.43;;;0.30;;
11962;SDS011;62678;52.130;5.584;2023-07-20T13:03:29;1.63;;;0.40;;
11962;SDS011;62678;52.130;5.584;2023-07-20T13:05:56;0.68;;;0.40;;
11962;SDS011;62678;52.130;5.584;2023-07-20T13:08:24;0.60;;;0.30;;
11962;SDS011;62678;52.130;5.584;2023-07-20T13:10:52;1.88;;;0.40;;
11962;SDS011;62678;52.130;5.584;2023-07-20T13:13:20;1.40;;;0.50;;
11962;SDS011;62678;52.130;5.584;2023-07-20T13:15:48;0.47;;;0.20;;
11962;SDS011;62678;52.130;5.584;2023-07-20T13:18:16;1.55;;;0.30;;
11962;SDS011;62678;52.130;5.584;2023-07-20T13:20:44;0.50;;;0.32;;
11962;SDS011;62678;52.130;5.584;2023-07-20T13:23:12;1.42;;;0.40;;
11962;SDS011;62678;52.130;5.584;2023-07-20T13:25:40;0.50;;;0.32;;
11962;SDS011;62678;52.130;5.584;2023-07-20T13:28:07;1.77;;;0.50;;
11962;SDS011;62678;52.130;5.584;2023-07-20T13:30:34;2.33;;;0.60;;
11962;SDS011;62678;52.130;5.584;2023-07-20T13:33:01;1.40;;;0.55;;
11962;SDS011;62678;52.130;5.584;2023-07-20T13:35:30;2.25;;;0.68;;
11962;SDS011;62678;52.130;5.584;2023-07-20T13:37:57;1.67;;;0.60;;
11962;SDS011;62678;52.130;5.584;2023-07-20T13:40:25;0.60;;;0.40;;
11962;SDS011;62678;52.130;5.584;2023-07-20T13:42:52;0.50;;;0.50;;
11962;SDS011;62678;52.130;5.584;2023-07-20T13:45:19;0.60;;;0.45;;
11962;SDS011;62678;52.130;5.584;2023-07-20T13:47:48;0.70;;;0.40;;
11962;SDS011;62678;52.130;5.584;2023-07-20T13:50:15;0.95;;;0.40;;
11962;SDS011;62678;52.130;5.584;2023-07-20T13:52:45;0.88;;;0.50;;
11962;SDS011;62678;52.130;5.584;2023-07-20T13:55:12;0.93;;;0.77;;
11962;SDS011;62678;52.130;5.584;2023-07-20T13:57:39;0.88;;;0.40;;
11962;SDS011;62678;52.130;5.584;2023-07-20T14:00:07;0.63;;;0.50;;
11962;SDS011;62678;52.130;5.584;2023-07-20T14:02:36;2.28;;;0.75;;
11962;SDS011;62678;52.130;5.584;2023-07-20T14:05:03;1.63;;;0.40;;
11962;SDS011;62678;52.130;5.584;2023-07-20T14:07:31;1.40;;;0.52;;
11962;SDS011;62678;52.130;5.584;2023-07-20T14:10:00;0.90;;;0.60;;
11962;SDS011;62678;52.130;5.584;2023-07-20T14:12:27;2.20;;;0.60;;
11962;SDS011;62678;52.130;5.584;2023-07-20T14:14:54;1.70;;;0.60;;
11962;SDS011;62678;52.130;5.584;2023-07-20T14:17:22;1.85;;;0.50;;
11962;SDS011;62678;52.130;5.584;2023-07-20T14:19:49;4.43;;;1.02;;
11962;SDS011;62678;52.130;5.584;2023-07-20T14:22:17;1.23;;;0.77;;
11962;SDS011;62678;52.130;5.584;2023-07-20T14:24:44;2.63;;;0.95;;
11962;SDS011;62678;52.130;5.584;2023-07-20T14:27:13;1.67;;;0.70;;
11962;SDS011;62678;52.130;5.584;2023-07-20T14:29:41;0.73;;;0.50;;
11962;SDS011;62678;52.130;5.584;2023-07-20T14:32:08;1.25;;;0.50;;
11962;SDS011;62678;52.130;5.584;2023-07-20T14:34:35;2.42;;;0.73;;
11962;SDS011;62678;52.130;5.584;2023-07-20T14:37:03;1.95;;;0.80;;
11962;SDS011;62678;52.130;5.584;2023-07-20T14:39:31;0.82;;;0.60;;
11962;SDS011;62678;52.130;5.584;2023-07-20T14:41:59;0.85;;;0.50;;
11962;SDS011;62678;52.130;5.584;2023-07-20T14:44:28;0.95;;;0.60;;
11962;SDS011;62678;52.130;5.584;2023-07-20T14:46:55;2.20;;;0.57;;
11962;SDS011;62678;52.130;5.584;2023-07-20T14:49:23;0.68;;;0.50;;
11962;SDS011;62678;52.130;5.584;2023-07-20T14:51:52;0.80;;;0.63;;
11962;SDS011;62678;52.130;5.584;2023-07-20T14:54:19;1.30;;;0.60;;
11962;SDS011;62678;52.130;5.584;2023-07-20T14:56:48;2.25;;;0.50;;
11962;SDS011;62678;52.130;5.584;2023-07-20T14:59:18;0.85;;;0.47;;
11962;SDS011;62678;52.130;5.584;2023-07-20T15:01:47;1.08;;;0.55;;
11962;SDS011;62678;52.130;5.584;2023-07-20T15:04:14;1.60;;;0.60;;